createdAt,value
2022-08-04T00:04:45.735Z,35.46
2022-08-04T00:10:06.766Z,35.61
2022-08-04T00:15:15.017Z,35.80
2022-08-04T00:20:22.928Z,36.02
2022-08-04T00:25:29.603Z,36.32
2022-08-04T00:30:35.794Z,36.83
2022-08-04T00:35:41.602Z,37.69
2022-08-04T00:41:11.225Z,38.33
2022-08-04T00:46:43.882Z,38.67
2022-08-04T00:52:32.485Z,39.09
2022-08-04T00:57:33.526Z,40.04
2022-08-04T01:02:30.044Z,40.98
2022-08-04T01:08:05.946Z,41.50
2022-08-04T01:13:20.719Z,41.99
2022-08-04T01:18:43.548Z,42.27
2022-08-04T01:24:14.968Z,42.66
2022-08-04T01:29:24.247Z,42.77
2022-08-04T01:34:37.443Z,43.54
2022-08-04T01:39:45.989Z,43.97
2022-08-04T01:44:52.573Z,44.23
2022-08-04T01:50:01.112Z,44.63
2022-08-04T01:55:10.948Z,45.26
2022-08-04T02:00:19.512Z,45.48
2022-08-04T02:06:02.589Z,45.79
2022-08-04T02:10:49.992Z,46.18
2022-08-04T02:16:15.387Z,46.64
2022-08-04T02:21:24.062Z,46.92
2022-08-04T02:26:32.349Z,47.11
2022-08-04T02:31:48.914Z,47.52
2022-08-04T02:36:55.593Z,47.95
2022-08-04T02:42:03.122Z,48.20
2022-08-04T02:47:10.913Z,48.49
2022-08-04T02:52:17.697Z,48.90
2022-08-04T02:57:25.857Z,49.07
2022-08-04T03:02:49.335Z,49.48
2022-08-04T03:08:19.814Z,49.73
2022-08-04T03:13:31.093Z,49.97
2022-08-04T03:19:14.634Z,50.62
2022-08-04T03:24:35.047Z,50.82
2022-08-04T03:30:02.115Z,51.07
2022-08-04T03:35:38.027Z,51.39
2022-08-04T03:41:04.854Z,51.54
2022-08-04T03:46:22.403Z,51.97
2022-08-04T03:51:48.959Z,52.42
2022-08-04T03:57:29.140Z,52.67
2022-08-04T04:02:46.657Z,52.93
2022-08-04T04:08:18.708Z,53.21
2022-08-04T04:13:48.192Z,53.49
2022-08-04T04:19:05.429Z,53.70
2022-08-04T04:24:25.741Z,53.76
2022-08-04T04:29:42.060Z,54.17
2022-08-04T04:35:09.945Z,54.57
2022-08-04T04:40:27.388Z,55.01
2022-08-04T04:45:35.924Z,55.17
2022-08-04T04:50:47.015Z,55.13
2022-08-04T04:56:13.988Z,55.08
2022-08-04T05:01:23.232Z,54.90
2022-08-04T05:06:47.129Z,54.71
2022-08-04T05:14:32.794Z,54.34
2022-08-04T05:17:43.931Z,54.19
2022-08-04T05:23:01.348Z,53.52
2022-08-04T05:28:22.191Z,53.90
2022-08-04T05:33:30.093Z,53.83
2022-08-04T05:38:41.581Z,53.70
2022-08-04T05:43:48.127Z,53.30
2022-08-04T05:48:54.629Z,53.12
2022-08-04T05:54:02.194Z,52.56
2022-08-04T05:59:10.749Z,52.37
2022-08-04T06:04:17.526Z,52.25
2022-08-04T06:09:23.296Z,51.90
2022-08-04T06:14:31.426Z,52.30
2022-08-04T06:20:00.894Z,52.48
2022-08-04T06:24:50.168Z,52.48
2022-08-04T06:29:57.743Z,52.24
2022-08-04T06:35:05.885Z,51.78
2022-08-04T06:40:31.512Z,51.39
2022-08-04T06:45:25.320Z,51.18
2022-08-04T06:51:32.388Z,50.74
2022-08-04T06:55:42.049Z,49.57
2022-08-04T07:00:49.544Z,48.58
2022-08-04T07:05:55.384Z,47.79
2022-08-04T07:11:02.528Z,47.11
2022-08-04T07:16:11.069Z,46.21
2022-08-04T07:21:24.829Z,45.57
2022-08-04T07:26:30.658Z,44.88
2022-08-04T07:31:36.629Z,44.15
2022-08-04T07:36:50.475Z,44.04
2022-08-04T07:41:50.014Z,43.71
2022-08-04T07:46:56.179Z,43.24
2022-08-04T07:52:03.236Z,42.83
2022-08-04T07:57:08.925Z,42.46
2022-08-04T08:02:16.915Z,41.94
2022-08-04T08:07:22.937Z,42.11
2022-08-04T08:12:35.114Z,41.68
2022-08-04T08:17:59.743Z,41.55
2022-08-04T08:22:45.832Z,40.97
2022-08-04T08:27:55.974Z,40.82
2022-08-04T08:32:59.297Z,40.44
2022-08-04T08:38:07.623Z,40.24
2022-08-04T08:44:06.441Z,39.62
2022-08-04T08:48:42.023Z,39.36
2022-08-04T08:54:22.746Z,39.05
2022-08-04T09:00:00.139Z,39.05
2022-08-04T09:05:37.778Z,38.73
2022-08-04T09:10:51.688Z,38.63
2022-08-04T09:16:17.281Z,38.39
2022-08-04T09:21:34.783Z,37.93
2022-08-04T09:26:43.308Z,37.67
2022-08-04T09:32:07.403Z,37.34
2022-08-04T09:37:20.309Z,37.03
2022-08-04T09:42:29.332Z,36.81
2022-08-04T09:47:50.818Z,36.41
2022-08-04T09:53:32.863Z,36.20
2022-08-04T09:58:46.711Z,35.91
2022-08-04T10:03:58.411Z,35.43
2022-08-04T10:09:36.037Z,34.99
2022-08-04T10:15:01.348Z,34.58
2022-08-04T10:20:44.582Z,34.47
2022-08-04T10:26:07.075Z,33.81
2022-08-04T10:30:57.826Z,33.56
2022-08-04T10:36:06.519Z,33.47
2022-08-04T10:41:19.559Z,33.11
2022-08-04T10:46:30.462Z,32.52
2022-08-04T10:51:57.900Z,32.26
2022-08-04T10:57:12.181Z,31.96
2022-08-04T11:02:30.091Z,31.88
2022-08-04T11:07:38.678Z,31.91
2022-08-04T11:12:46.742Z,31.58
2022-08-04T11:18:00.875Z,31.50
2022-08-04T11:23:15.125Z,31.32
2022-08-04T11:28:32.834Z,30.65
2022-08-04T11:33:47.264Z,30.35
2022-08-04T11:39:17.772Z,29.66
2022-08-04T11:44:38.226Z,29.67
2022-08-04T11:49:56.570Z,29.29
2022-08-04T11:54:55.638Z,28.88
2022-08-04T12:00:07.244Z,28.58
2022-08-04T12:05:32.357Z,28.38
2022-08-04T12:10:41.967Z,27.93
2022-08-04T12:16:00.861Z,27.68
2022-08-04T12:21:09.996Z,27.18
2022-08-04T12:26:34.290Z,27.07
2022-08-04T12:31:52.065Z,26.78
2022-08-04T12:37:08.897Z,26.76
2022-08-04T12:42:56.284Z,26.57
2022-08-04T12:47:52.856Z,26.55
2022-08-04T12:53:02.089Z,26.25
2022-08-04T12:58:09.562Z,25.97
2022-08-04T13:03:17.977Z,25.58
2022-08-04T13:08:25.301Z,25.59
2022-08-04T13:13:33.946Z,25.69
2022-08-04T13:18:42.905Z,25.14
2022-08-04T13:24:20.265Z,25.14
2022-08-04T13:29:16.178Z,24.81
2022-08-04T13:34:18.766Z,25.03
2022-08-04T13:39:23.007Z,24.70
2022-08-04T13:44:31.588Z,24.70
2022-08-04T13:50:00.965Z,24.41
2022-08-04T13:54:48.150Z,24.27
2022-08-04T13:59:58.625Z,24.00
2022-08-04T14:05:07.153Z,24.21
2022-08-04T14:10:16.242Z,24.25
2022-08-04T14:16:02.574Z,24.27
2022-08-04T14:21:03.267Z,24.28
2022-08-04T14:26:20.204Z,24.07
2022-08-04T14:31:30.926Z,23.85
2022-08-04T14:37:13.328Z,23.65
2022-08-04T14:41:51.713Z,23.67
2022-08-04T14:46:59.755Z,23.50
2022-08-04T14:52:05.529Z,23.38
2022-08-04T14:57:11.097Z,23.48
2022-08-04T15:02:18.049Z,23.24
2022-08-04T15:07:23.663Z,23.22
2022-08-04T15:12:29.130Z,23.16
2022-08-04T15:17:34.892Z,22.97
2022-08-04T15:22:40.666Z,22.80
2022-08-04T15:27:49.243Z,22.57
2022-08-04T15:33:02.445Z,22.85
2022-08-04T15:38:11.091Z,22.76
2022-08-04T15:43:55.451Z,22.79
2022-08-04T15:48:55.699Z,22.18
2022-08-04T15:54:24.510Z,21.96
2022-08-04T15:59:46.249Z,22.60
2022-08-04T16:04:54.786Z,22.93
2022-08-04T16:10:33.940Z,23.15
2022-08-04T16:15:45.713Z,21.71
2022-08-04T16:20:52.538Z,20.76
2022-08-04T16:25:58.214Z,20.43
2022-08-04T16:31:04.923Z,20.39
2022-08-04T16:36:12.541Z,20.93
2022-08-04T16:41:21.274Z,20.97
2022-08-04T16:47:21.638Z,21.06
2022-08-04T16:51:53.095Z,20.90
2022-08-04T16:57:00.261Z,21.14
2022-08-04T17:02:10.047Z,21.25
2022-08-04T17:07:15.796Z,21.37
2022-08-04T17:12:21.556Z,21.35
2022-08-04T17:18:03.988Z,21.42
2022-08-04T17:22:34.747Z,21.14
2022-08-04T17:28:06.185Z,21.53
2022-08-04T17:32:48.948Z,21.74
2022-08-04T17:37:57.995Z,21.79
2022-08-04T17:44:04.719Z,22.15
2022-08-04T17:48:24.945Z,23.44
2022-08-04T17:54:01.906Z,23.44
2022-08-04T17:58:43.497Z,24.22
2022-08-04T18:03:53.532Z,24.70
2022-08-04T18:09:22.770Z,25.00
2022-08-04T18:14:06.127Z,25.13
2022-08-04T18:19:19.000Z,25.34
2022-08-04T18:24:34.509Z,25.67
2022-08-04T18:29:34.417Z,25.98
2022-08-04T18:34:55.046Z,26.38
2022-08-04T18:40:09.444Z,26.67
2022-08-04T18:44:57.442Z,27.07
2022-08-04T18:50:58.456Z,27.41
2022-08-04T18:55:11.072Z,27.78
2022-08-04T19:00:19.843Z,28.48
2022-08-04T19:05:25.958Z,28.99
2022-08-04T19:10:33.352Z,29.45
2022-08-04T19:15:40.451Z,29.87
2022-08-04T19:20:49.041Z,30.23
2022-08-04T19:26:02.976Z,30.62
2022-08-04T19:31:05.079Z,30.98
2022-08-04T19:36:10.906Z,31.36
2022-08-04T19:41:18.148Z,31.70
2022-08-04T19:46:25.586Z,31.91
2022-08-04T19:51:33.723Z,32.25
2022-08-04T19:56:40.208Z,32.45
2022-08-04T20:01:47.123Z,32.68
2022-08-04T20:06:54.318Z,32.89
2022-08-04T20:11:59.902Z,33.12
2022-08-04T20:17:10.115Z,33.26
2022-08-04T20:22:52.183Z,33.49
2022-08-04T20:27:24.921Z,33.63
2022-08-04T20:32:32.096Z,33.82
2022-08-04T20:37:55.103Z,33.98
2022-08-04T20:42:48.224Z,34.12
2022-08-04T20:47:54.485Z,34.34
2022-08-04T20:53:00.790Z,34.57
2022-08-04T20:58:06.682Z,34.75
2022-08-04T21:03:13.569Z,34.94
2022-08-04T21:08:19.661Z,35.16
2022-08-04T21:13:27.759Z,35.27
2022-08-04T21:18:35.013Z,35.45
2022-08-04T21:23:41.608Z,35.60
2022-08-04T21:28:47.421Z,35.71
2022-08-04T21:33:53.388Z,35.90
2022-08-04T21:38:58.990Z,35.99
2022-08-04T21:44:05.603Z,36.09
2022-08-04T21:49:12.953Z,36.30
2022-08-04T21:54:18.728Z,36.37
2022-08-04T21:59:30.723Z,36.46
2022-08-04T22:04:32.827Z,36.54
2022-08-04T22:09:41.337Z,36.63
2022-08-04T22:14:50.507Z,36.80
2022-08-04T22:19:56.693Z,36.96
2022-08-04T22:25:12.313Z,37.16
2022-08-04T22:30:17.311Z,37.22
2022-08-04T22:35:35.464Z,37.37
2022-08-04T22:40:30.414Z,37.78
2022-08-04T22:45:43.330Z,38.06
2022-08-04T22:50:43.592Z,38.15
2022-08-04T22:56:07.611Z,38.50
2022-08-04T23:00:58.317Z,38.65
2022-08-04T23:06:06.425Z,38.88
2022-08-04T23:11:13.734Z,39.10
2022-08-04T23:16:20.520Z,39.42
2022-08-04T23:21:27.723Z,40.05
2022-08-04T23:26:34.942Z,40.19
2022-08-04T23:31:59.959Z,40.44
2022-08-04T23:36:49.782Z,40.47
2022-08-04T23:41:57.851Z,40.66
2022-08-04T23:47:04.500Z,40.88
2022-08-04T23:52:10.120Z,41.12
2022-08-04T23:57:19.238Z,41.51
